KMWL

Mineral Wells Airport

Mineral Wells, Texas, USA
METAR KMWL 222353Z AUTO 29003KT 10SM BKN006 OVC026 01/00 A3020 RMK AO2 SLP233 60001 T00110000 10017 20000 55001 $
Observed Flight Rules
Feb-22 @ 23:53 UTC (33 minutes ago) Instrument Flight Rules
Wind Visibility Clouds
290° at 3 knots 10 miles
  • Broken at 600' AGL
  • Overcast at 2,600' AGL
Temperatures Readings
Current 1°C / 34°F
Dewpoint 0°C / 32°F
Humidity 93%
Altimeter 30.2" Hg
Pressure 1023.3 hPa
Elevation 284
METAR KMWL 222353Z AUTO 29003KT 10SM BKN006 OVC026 01/00 A3020 RMK AO2 SLP233 60001 T00110000 10017 20000 55001 $
Observed Flight Rules
Feb-22 @ 23:53 UTC
(33 minutes ago)
IFR
Wind Visibility
290° at 3 knots 10 miles
Clouds
  • Broken at 600' AGL
  • Overcast at 2,600' AGL
Temperature Dewpoint
1°C / 34°F 0°C / 32°F
Humidity Altimeter Pressure
93% 30.2" Hg 1023.3 hPa